Time;durP1;ratioP1;P1;durP2;ratioP2;P2;SDS_P1;SDS_P2;PMS_P1;PMS_P2;Temp;Humidity;BMP_temperature;BMP_pressure;BME280_temperature;BME280_humidity;BME280_pressure;Samples;Min_cycle;Max_cycle;Signal;HPM_P1;HPM_P2
2023/01/10 00:01:27;;;;;;;;;;;;;;;25.80;44.19;94014.41;4873548;29;7291;-71
2023/01/10 00:03:53;;;;;;;;;;;;;;;25.78;43.88;94025.19;4977583;28;8941;-71
2023/01/10 00:06:28;;;;;;;;;;;;;;;25.78;43.95;94022.44;4981319;28;9153;-71
2023/01/10 00:08:57;;;;;;;;;;;;;;;25.75;44.47;94033.78;4947392;28;7710;-71
2023/01/10 00:14:11;;;;;;;;;;;;;;;25.73;44.03;94039.78;4940945;28;7272;-70
2023/01/10 00:16:38;;;;;;;;;;;;;;;25.73;44.37;94050.06;4951703;28;8690;-71
2023/01/10 00:19:09;;;;;;;;;;;;;;;25.73;43.72;94055.59;4952932;28;9000;-70
2023/01/10 00:21:45;;;;;;;;;;;;;;;25.75;44.50;94050.31;4953580;29;7270;-71
2023/01/10 00:24:17;;;;;;;;;;;;;;;25.74;43.74;94063.31;4967420;28;7358;-71
2023/01/10 00:27:11;;;;;;;;;;;;;;;25.76;43.57;94071.06;4950363;28;8946;-71
2023/01/10 00:29:51;;;;;;;;;;;;;;;25.73;44.10;94063.84;4924623;29;9474;-70
2023/01/10 00:32:31;;;;;;;;;;;;;;;25.74;44.46;94071.59;4935726;28;9208;-70
2023/01/10 00:34:57;;;;;;;;;;;;;;;25.75;44.23;94075.09;4938647;28;7184;-70
2023/01/10 00:37:28;;;;;;;;;;;;;;;25.75;44.02;94084.06;4947199;28;7102;-70
2023/01/10 00:39:59;;;;;;;;;;;;;;;25.74;44.20;94085.34;4940604;28;9123;-71
2023/01/10 00:45:10;;;;;;;;;;;;;;;25.72;43.75;94098.16;4952981;28;9019;-71
2023/01/10 00:47:37;;;;;;;;;;;;;;;25.72;43.97;94093.41;4931930;28;8992;-71
2023/01/10 00:50:05;;;;;;;;;;;;;;;25.74;44.68;94101.88;4925610;28;7033;-71
2023/01/10 00:52:42;;;;;;;;;;;;;;;25.73;44.60;94105.16;4921394;28;9106;-71
2023/01/10 00:55:08;;;;;;;;;;;;;;;25.75;43.78;94113.66;4935052;28;8770;-71
2023/01/10 00:57:49;;;;;;;;;;;;;;;25.72;44.17;94128.44;4951241;28;7046;-71
2023/01/10 01:00:25;;;;;;;;;;;;;;;25.71;44.36;94130.47;4924493;29;9124;-71
2023/01/10 01:03:00;;;;;;;;;;;;;;;25.70;44.28;94128.97;4930680;28;7029;-71
2023/01/10 01:05:32;;;;;;;;;;;;;;;25.71;43.73;94141.47;4932614;28;7041;-71
2023/01/10 01:08:36;;;;;;;;;;;;;;;25.70;44.24;94151.03;4988741;28;7037;-71
2023/01/10 01:11:03;;;;;;;;;;;;;;;25.68;44.19;94153.53;4949556;28;7468;-71
2023/01/10 01:13:29;;;;;;;;;;;;;;;25.72;43.50;94153.25;4938650;28;7260;-71
2023/01/10 01:15:59;;;;;;;;;;;;;;;25.72;43.96;94170.53;4937082;28;7198;-71
2023/01/10 01:19:01;;;;;;;;;;;;;;;25.68;44.65;94174.81;4929666;29;7149;-71
2023/01/10 01:21:39;;;;;;;;;;;;;;;25.66;44.50;94178.09;4969109;28;9010;-71
2023/01/10 01:24:20;;;;;;;;;;;;;;;25.65;43.94;94195.88;4953606;28;9333;-71
2023/01/10 01:26:50;;;;;;;;;;;;;;;25.66;44.08;94208.41;4956844;28;7046;-71
2023/01/10 01:29:23;;;;;;;;;;;;;;;25.66;44.07;94216.66;4974029;28;8971;-71
2023/01/10 01:32:17;;;;;;;;;;;;;;;25.69;44.71;94225.88;4957688;28;7889;-71
2023/01/10 01:34:45;;;;;;;;;;;;;;;25.71;44.23;94228.91;4953516;28;7279;-71
2023/01/10 01:37:13;;;;;;;;;;;;;;;25.70;44.28;94230.91;4972222;28;7379;-71
2023/01/10 01:39:43;;;;;;;;;;;;;;;25.71;44.40;94243.41;4972138;28;7417;-71
2023/01/10 01:42:29;;;;;;;;;;;;;;;25.70;43.58;94243.91;4967008;28;7522;-71
2023/01/10 01:45:07;;;;;;;;;;;;;;;25.71;44.22;94250.94;4958879;28;7220;-71
2023/01/10 01:47:56;;;;;;;;;;;;;;;25.69;43.59;94254.19;4959400;28;7212;-71
2023/01/10 01:51:04;;;;;;;;;;;;;;;25.68;44.63;94260.97;4944987;28;7507;-71
2023/01/10 01:53:37;;;;;;;;;;;;;;;25.67;43.86;94261.47;4960868;28;7520;-71
2023/01/10 01:56:29;;;;;;;;;;;;;;;25.69;43.69;94281.72;4954567;28;7302;-71
2023/01/10 01:59:22;;;;;;;;;;;;;;;25.70;44.05;94286.00;4940698;28;7519;-72
2023/01/10 02:01:54;;;;;;;;;;;;;;;25.68;43.87;94285.00;4968448;28;9403;-71
2023/01/10 02:04:30;;;;;;;;;;;;;;;25.68;44.17;94296.03;4952678;28;9709;-71
2023/01/10 02:07:01;;;;;;;;;;;;;;;25.62;44.50;94285.03;4964142;28;7419;-71
2023/01/10 02:09:38;;;;;;;;;;;;;;;25.64;43.66;94295.56;4951321;28;6969;-71
2023/01/10 02:12:05;;;;;;;;;;;;;;;25.66;44.51;94285.53;4940078;28;8791;-71
2023/01/10 02:15:02;;;;;;;;;;;;;;;25.67;44.63;94289.00;4957578;28;7283;-71
2023/01/10 02:17:50;;;;;;;;;;;;;;;25.67;44.02;94298.03;4953692;28;9207;-71
2023/01/10 02:20:21;;;;;;;;;;;;;;;25.66;43.92;94304.81;4954660;28;7619;-71
2023/01/10 02:23:22;;;;;;;;;;;;;;;25.66;43.44;94304.06;4951760;28;7022;-71
2023/01/10 02:26:16;;;;;;;;;;;;;;;25.66;44.71;94304.06;4946816;28;7027;-71
2023/01/10 02:29:01;;;;;;;;;;;;;;;25.64;44.45;94296.31;4966803;28;7276;-71
2023/01/10 02:31:43;;;;;;;;;;;;;;;25.62;44.06;94301.56;4944802;28;7293;-72
2023/01/10 02:34:53;;;;;;;;;;;;;;;25.63;43.70;94305.06;4966954;28;8206;-71
2023/01/10 02:37:50;;;;;;;;;;;;;;;25.61;43.68;94313.84;4949523;28;7218;-71
2023/01/10 02:40:25;;;;;;;;;;;;;;;25.62;44.55;94307.06;4986909;28;7372;-71
2023/01/10 02:42:55;;;;;;;;;;;;;;;25.63;44.04;94300.31;4953739;28;7525;-71
2023/01/10 02:45:43;;;;;;;;;;;;;;;25.62;44.22;94311.84;4984347;28;7054;-71
2023/01/10 02:48:35;;;;;;;;;;;;;;;25.60;44.41;94312.34;4952682;28;6965;-71
2023/01/10 02:51:26;;;;;;;;;;;;;;;25.60;43.69;94315.09;4937362;28;7147;-71
2023/01/10 02:54:24;;;;;;;;;;;;;;;25.58;44.17;94322.41;4957850;28;7113;-71
2023/01/10 02:57:34;;;;;;;;;;;;;;;25.59;43.76;94327.41;4944102;28;8854;-72
2023/01/10 03:00:38;;;;;;;;;;;;;;;25.61;44.53;94326.88;4948609;28;7267;-71
2023/01/10 03:03:49;;;;;;;;;;;;;;;25.60;43.71;94342.66;4933135;28;9377;-71
2023/01/10 03:06:30;;;;;;;;;;;;;;;25.59;44.23;94354.94;4926751;28;7022;-71
2023/01/10 03:09:20;;;;;;;;;;;;;;;25.60;44.44;94350.91;4945976;28;9051;-72
2023/01/10 03:12:28;;;;;;;;;;;;;;;25.60;44.20;94356.41;4943115;28;7297;-72
2023/01/10 03:15:06;;;;;;;;;;;;;;;25.60;44.47;94361.19;4948068;28;8727;-72
2023/01/10 03:17:37;;;;;;;;;;;;;;;25.58;44.20;94383.72;4935398;28;6990;-71
2023/01/10 03:20:22;;;;;;;;;;;;;;;25.57;44.29;94373.97;4934414;28;8690;-70
2023/01/10 03:23:23;;;;;;;;;;;;;;;25.57;43.85;94379.50;4957393;28;7433;-69
2023/01/10 03:26:08;;;;;;;;;;;;;;;25.58;44.08;94399.53;4932071;29;9403;-70
2023/01/10 03:29:03;;;;;;;;;;;;;;;25.57;43.76;94409.03;4964671;28;8293;-71
2023/01/10 03:31:55;;;;;;;;;;;;;;;25.58;44.24;94418.81;4980430;28;7548;-70
2023/01/10 03:34:23;;;;;;;;;;;;;;;25.58;44.39;94429.81;4949733;28;9329;-71
2023/01/10 03:37:12;;;;;;;;;;;;;;;25.56;43.70;94427.56;4951141;28;8291;-71
2023/01/10 03:39:58;;;;;;;;;;;;;;;25.57;44.35;94434.56;4952011;29;9457;-71
2023/01/10 03:44:42;;;;;;;;;;;;;;;25.56;44.12;94443.31;4961724;28;7123;-71
2023/01/10 03:45:25;;;;;;;;;;;;;;;25.55;44.25;94452.88;4951636;28;8734;-71
2023/01/10 03:47:55;;;;;;;;;;;;;;;25.56;43.96;94452.34;4950144;28;7358;-71
2023/01/10 03:50:26;;;;;;;;;;;;;;;25.56;43.53;94459.84;4945731;28;7043;-71
2023/01/10 03:53:15;;;;;;;;;;;;;;;25.56;44.24;94448.84;4952502;28;8709;-71
2023/01/10 03:56:06;;;;;;;;;;;;;;;25.56;44.46;94463.38;4953611;29;7039;-71
2023/01/10 03:58:42;;;;;;;;;;;;;;;25.56;44.25;94471.63;4941955;28;9114;-71
2023/01/10 04:01:18;;;;;;;;;;;;;;;25.57;44.38;94484.16;4946500;29;9058;-70
2023/01/10 04:03:49;;;;;;;;;;;;;;;25.59;43.61;94498.16;4948769;29;9039;-71
2023/01/10 04:06:42;;;;;;;;;;;;;;;25.59;44.57;94497.41;4953201;28;7265;-71
2023/01/10 04:09:40;;;;;;;;;;;;;;;25.59;43.65;94502.91;4991408;28;7805;-70
2023/01/10 04:12:18;;;;;;;;;;;;;;;25.55;44.13;94505.94;4951112;28;9091;-71
2023/01/10 04:15:00;;;;;;;;;;;;;;;25.54;44.53;94503.69;4948466;28;8455;-71
2023/01/10 04:17:36;;;;;;;;;;;;;;;25.53;44.17;94505.72;4973001;28;7084;-71
2023/01/10 04:20:33;;;;;;;;;;;;;;;25.53;44.25;94508.47;4984715;28;9146;-71
2023/01/10 04:23:00;;;;;;;;;;;;;;;25.52;44.47;94512.47;4985074;28;7014;-71
2023/01/10 04:25:28;;;;;;;;;;;;;;;25.53;43.82;94508.47;4989038;28;8071;-71
2023/01/10 04:28:20;;;;;;;;;;;;;;;25.54;43.59;94520.22;4954747;28;9057;-71
2023/01/10 04:30:46;;;;;;;;;;;;;;;25.52;43.92;94520.72;4952848;28;9178;-71
2023/01/10 04:33:21;;;;;;;;;;;;;;;25.58;44.42;94526.94;4955875;28;9154;-71
2023/01/10 04:35:48;;;;;;;;;;;;;;;25.58;43.57;94529.69;4951848;28;9033;-71
2023/01/10 04:38:15;;;;;;;;;;;;;;;25.61;43.46;94534.22;4968051;28;6991;-71
2023/01/10 04:40:44;;;;;;;;;;;;;;;25.59;44.20;94541.47;4954203;28;7040;-70
2023/01/10 04:43:10;;;;;;;;;;;;;;;25.59;44.44;94552.50;4949943;28;7688;-71
2023/01/10 04:45:36;;;;;;;;;;;;;;;25.59;43.73;94556.00;4987037;28;7013;-71
2023/01/10 04:48:08;;;;;;;;;;;;;;;25.58;43.86;94557.25;4945488;28;7058;-70
2023/01/10 04:50:36;;;;;;;;;;;;;;;25.60;43.50;94571.25;4984847;28;9405;-71
2023/01/10 04:53:04;;;;;;;;;;;;;;;25.59;44.42;94575.28;4955153;28;7111;-70
2023/01/10 04:55:34;;;;;;;;;;;;;;;25.59;43.82;94580.78;4983956;28;7441;-70
2023/01/10 04:58:01;;;;;;;;;;;;;;;25.60;44.32;94578.78;4984069;28;7298;-70
2023/01/10 05:00:27;;;;;;;;;;;;;;;25.58;43.85;94581.31;4952064;28;7063;-71
2023/01/10 05:02:56;;;;;;;;;;;;;;;25.57;43.63;94588.06;4958386;28;8815;-70
2023/01/10 05:05:23;;;;;;;;;;;;;;;25.57;44.43;94599.84;4967839;28;7074;-71
2023/01/10 05:07:51;;;;;;;;;;;;;;;25.56;43.78;94605.81;4988063;28;7416;-70
2023/01/10 05:10:24;;;;;;;;;;;;;;;25.55;44.68;94609.84;4969833;28;8753;-70
2023/01/10 05:12:50;;;;;;;;;;;;;;;25.55;44.39;94610.59;4963662;28;9166;-71
2023/01/10 05:15:27;;;;;;;;;;;;;;;25.55;44.32;94607.84;4948821;28;6996;-71
2023/01/10 05:18:00;;;;;;;;;;;;;;;25.56;44.19;94609.34;4953833;28;6996;-71
2023/01/10 05:20:26;;;;;;;;;;;;;;;25.57;44.01;94610.09;4947576;28;9135;-71
2023/01/10 05:22:54;;;;;;;;;;;;;;;25.54;43.72;94614.59;4951319;28;8912;-71
2023/01/10 05:25:20;;;;;;;;;;;;;;;25.53;43.70;94615.88;4977970;28;9057;-71
2023/01/10 05:27:46;;;;;;;;;;;;;;;25.54;44.03;94622.88;4961315;28;7604;-71
2023/01/10 05:30:17;;;;;;;;;;;;;;;25.53;44.16;94610.38;4952424;28;7337;-71
2023/01/10 05:32:43;;;;;;;;;;;;;;;25.54;44.15;94628.38;4942434;28;7231;-70
2023/01/10 05:35:09;;;;;;;;;;;;;;;25.54;43.63;94627.63;4951534;28;7512;-69
2023/01/10 05:37:35;;;;;;;;;;;;;;;25.54;43.79;94635.88;4955359;28;7487;-69
2023/01/10 05:40:01;;;;;;;;;;;;;;;25.54;43.57;94641.38;4952677;28;7208;-69
2023/01/10 05:42:27;;;;;;;;;;;;;;;25.52;44.17;94650.16;4986863;28;7010;-69
2023/01/10 05:45:24;;;;;;;;;;;;;;;25.54;44.52;94655.91;4951978;28;9400;-69
2023/01/10 05:48:03;;;;;;;;;;;;;;;25.53;44.63;94651.69;4962343;28;7006;-69
2023/01/10 05:50:56;;;;;;;;;;;;;;;25.56;44.21;94667.19;4978963;28;7484;-70
2023/01/10 05:53:35;;;;;;;;;;;;;;;25.56;47.17;94669.94;4990845;28;9024;-70
2023/01/10 05:56:17;;;;;;;;;;;;;;;25.62;46.60;94676.16;4971636;28;9728;-71
2023/01/10 05:58:44;;;;;;;;;;;;;;;25.64;44.54;94681.94;4969626;28;7240;-70
2023/01/10 06:01:24;;;;;;;;;;;;;;;25.64;44.63;94681.94;4970919;28;8713;-70
2023/01/10 06:03:51;;;;;;;;;;;;;;;25.66;45.67;94679.44;4962347;28;10008;-70
2023/01/10 06:06:19;;;;;;;;;;;;;;;25.71;45.88;94680.69;4968784;28;7191;-70
2023/01/10 06:08:57;;;;;;;;;;;;;;;25.73;45.48;94686.44;4971147;28;9075;-70
2023/01/10 06:11:43;;;;;;;;;;;;;;;25.75;46.04;94683.94;4975618;28;7973;-70
2023/01/10 06:14:24;;;;;;;;;;;;;;;25.77;44.54;94686.94;4984007;28;9016;-70
2023/01/10 06:17:43;;;;;;;;;;;;;;;25.79;44.93;94684.41;4971783;28;6999;-69
2023/01/10 06:20:11;;;;;;;;;;;;;;;25.78;44.77;94691.16;4908255;29;7508;-69
2023/01/10 06:23:03;;;;;;;;;;;;;;;25.78;44.84;94691.16;4913838;29;9031;-68
2023/01/10 06:25:41;;;;;;;;;;;;;;;25.80;44.70;94705.94;4906452;29;7048;-71
2023/01/10 06:28:12;;;;;;;;;;;;;;;25.80;43.25;94708.69;4897848;29;7109;-71
2023/01/10 06:30:51;;;;;;;;;;;;;;;25.80;43.75;94705.19;4921215;29;7033;-71
2023/01/10 06:33:17;;;;;;;;;;;;;;;25.78;42.91;94715.97;4894663;29;7024;-71
2023/01/10 06:35:45;;;;;;;;;;;;;;;25.78;43.59;94718.72;4895988;29;7572;-71
2023/01/10 06:38:14;;;;;;;;;;;;;;;25.77;43.69;94726.25;4916978;29;6998;-71
2023/01/10 06:40:40;;;;;;;;;;;;;;;25.79;43.63;94734.00;4909406;29;8263;-70
2023/01/10 06:43:05;;;;;;;;;;;;;;;25.77;43.89;94737.28;4912552;29;7208;-69
2023/01/10 06:45:32;;;;;;;;;;;;;;;25.78;43.35;94740.75;4911233;29;9023;-69
2023/01/10 06:47:58;;;;;;;;;;;;;;;25.77;43.55;94742.78;4908912;29;7234;-69
2023/01/10 06:50:31;;;;;;;;;;;;;;;25.75;43.64;94737.00;4896849;29;9044;-69
2023/01/10 06:53:26;;;;;;;;;;;;;;;25.76;43.21;94744.03;4909583;29;9348;-68
2023/01/10 06:55:56;;;;;;;;;;;;;;;25.75;43.33;94745.28;4927541;28;7270;-68
2023/01/10 06:58:24;;;;;;;;;;;;;;;25.78;43.43;94752.53;4987416;28;8765;-68
2023/01/10 07:01:01;;;;;;;;;;;;;;;25.78;43.67;94766.31;4960297;28;7326;-69
2023/01/10 07:03:27;;;;;;;;;;;;;;;25.79;43.15;94769.84;4952407;28;7255;-68
2023/01/10 07:05:53;;;;;;;;;;;;;;;25.78;43.24;94768.31;4953109;28;8992;-69
2023/01/10 07:08:24;;;;;;;;;;;;;;;25.78;43.25;94762.81;4960377;28;8676;-69
2023/01/10 07:11:24;;;;;;;;;;;;;;;25.76;43.34;94763.31;4954280;28;8689;-69
2023/01/10 07:14:01;;;;;;;;;;;;;;;25.77;43.42;94769.59;4964591;28;9019;-70
2023/01/10 07:16:40;;;;;;;;;;;;;;;25.74;43.48;94773.34;4963867;28;6866;-70
2023/01/10 07:19:32;;;;;;;;;;;;;;;25.76;42.90;94779.84;4944022;28;7676;-70
2023/01/10 07:21:58;;;;;;;;;;;;;;;25.75;43.42;94783.84;4964306;28;7259;-69
2023/01/10 07:25:09;;;;;;;;;;;;;;;25.77;43.17;94778.59;4968561;28;7342;-71
2023/01/10 07:28:08;;;;;;;;;;;;;;;25.80;43.69;94772.06;4932653;29;7432;-71
2023/01/10 07:31:17;;;;;;;;;;;;;;;25.78;42.48;94782.84;4880039;29;9456;-71
2023/01/10 07:34:18;;;;;;;;;;;;;;;25.76;43.56;94782.59;4893540;29;9266;-71
2023/01/10 07:36:46;;;;;;;;;;;;;;;25.73;43.16;94780.13;4862113;29;7264;-70
2023/01/10 07:39:12;;;;;;;;;;;;;;;25.73;43.91;94791.13;4848349;29;7276;-70
2023/01/10 07:41:38;;;;;;;;;;;;;;;25.70;43.66;94803.91;4866614;29;7012;-71
2023/01/10 07:44:43;;;;;;;;;;;;;;;25.72;44.06;94797.88;4876237;29;8114;-71
2023/01/10 07:47:12;;;;;;;;;;;;;;;25.74;44.27;94798.13;4874464;29;9053;-71
2023/01/10 07:50:29;;;;;;;;;;;;;;;25.76;44.13;94803.88;4861542;29;7309;-71
2023/01/10 07:53:14;;;;;;;;;;;;;;;25.74;43.64;94806.41;4840283;29;7397;-71
2023/01/10 07:56:16;;;;;;;;;;;;;;;25.71;44.07;94810.91;4840023;29;7253;-71
2023/01/10 07:58:45;;;;;;;;;;;;;;;25.71;44.25;94813.66;4794332;29;7920;-71
2023/01/10 08:01:25;;;;;;;;;;;;;;;25.71;44.19;94818.44;4798138;29;7368;-71
2023/01/10 08:03:56;;;;;;;;;;;;;;;25.73;44.13;94826.94;4785120;30;7289;-71
2023/01/10 08:06:42;;;;;;;;;;;;;;;25.73;43.41;94833.19;4786385;29;8212;-71
2023/01/10 08:09:43;;;;;;;;;;;;;;;25.73;44.21;94835.22;4818472;29;9360;-71
2023/01/10 08:12:35;;;;;;;;;;;;;;;25.70;44.16;94827.94;4819482;29;7048;-71
2023/01/10 08:15:01;;;;;;;;;;;;;;;25.67;44.36;94829.69;4836803;29;9019;-71
2023/01/10 08:21:12;;;;;;;;;;;;;;;25.70;43.51;94834.22;4876455;29;9159;-71
2023/01/10 08:27:18;;;;;;;;;;;;;;;25.69;43.47;94843.72;4876022;29;7110;-71
2023/01/10 08:30:34;;;;;;;;;;;;;;;25.68;44.26;94847.75;4907776;29;7021;-71
2023/01/10 08:33:11;;;;;;;;;;;;;;;25.67;44.39;94851.72;4909317;29;9080;-71
2023/01/10 08:35:56;;;;;;;;;;;;;;;25.69;43.53;94854.75;4911589;29;7386;-71
2023/01/10 08:38:22;;;;;;;;;;;;;;;25.70;44.41;94856.25;4914016;29;9096;-71
2023/01/10 08:40:48;;;;;;;;;;;;;;;25.70;43.77;94855.50;4917362;29;8026;-71
2023/01/10 08:43:17;;;;;;;;;;;;;;;25.68;44.38;94858.75;4916109;29;7425;-71
2023/01/10 08:45:47;;;;;;;;;;;;;;;25.67;43.71;94868.25;4915746;29;8325;-71
2023/01/10 08:48:16;;;;;;;;;;;;;;;25.70;43.61;94863.75;4907085;29;7470;-71
2023/01/10 08:50:42;;;;;;;;;;;;;;;25.71;44.24;94865.28;4906354;29;9284;-72
2023/01/10 08:53:32;;;;;;;;;;;;;;;25.73;43.48;94868.28;4934147;29;8985;-72
2023/01/10 08:56:08;;;;;;;;;;;;;;;25.72;43.80;94870.28;4903025;29;7155;-71
2023/01/10 08:58:55;;;;;;;;;;;;;;;25.73;43.58;94860.75;4911471;29;8226;-70
2023/01/10 09:01:31;;;;;;;;;;;;;;;25.72;43.85;94873.03;4913172;29;9017;-71
2023/01/10 09:03:59;;;;;;;;;;;;;;;25.72;44.57;94878.53;4895691;29;9780;-71
2023/01/10 09:06:57;;;;;;;;;;;;;;;25.73;44.20;94888.28;4895657;29;9154;-71
2023/01/10 09:09:28;;;;;;;;;;;;;;;25.71;44.07;94881.81;4926081;28;8468;-71
2023/01/10 09:12:53;;;;;;;;;;;;;;;25.71;44.31;94890.81;4955396;28;8378;-71
2023/01/10 09:15:05;;;;;;;;;;;;;;;25.72;44.32;94892.31;4951875;28;9426;-70
2023/01/10 09:17:36;;;;;;;;;;;;;;;25.71;44.03;94896.31;4965244;28;9025;-71
2023/01/10 09:20:22;;;;;;;;;;;;;;;25.71;43.75;94904.56;4939106;28;8604;-70
2023/01/10 09:22:57;;;;;;;;;;;;;;;25.70;43.99;94902.34;4984012;28;7303;-71
2023/01/10 09:25:23;;;;;;;;;;;;;;;25.69;44.62;94914.59;4954430;28;9343;-71
2023/01/10 09:27:58;;;;;;;;;;;;;;;25.69;44.09;94909.84;4986550;28;7079;-71
2023/01/10 09:30:26;;;;;;;;;;;;;;;25.68;44.23;94908.34;4953488;28;7282;-71
2023/01/10 09:32:53;;;;;;;;;;;;;;;25.70;44.00;94907.84;4951333;28;7310;-71
2023/01/10 09:35:25;;;;;;;;;;;;;;;25.71;44.21;94907.34;4950512;28;7196;-71
2023/01/10 09:38:02;;;;;;;;;;;;;;;25.74;44.26;94911.84;4951135;28;8294;-71
2023/01/10 09:41:00;;;;;;;;;;;;;;;25.74;43.54;94916.59;4947793;28;9657;-71
2023/01/10 09:44:04;;;;;;;;;;;;;;;25.71;44.58;94914.88;4951833;28;7048;-71
2023/01/10 09:46:36;;;;;;;;;;;;;;;25.70;44.70;94922.38;4948179;28;7162;-71
2023/01/10 09:49:25;;;;;;;;;;;;;;;25.70;44.01;94919.63;4947578;28;8491;-71
2023/01/10 09:51:57;;;;;;;;;;;;;;;25.71;43.97;94923.88;4950515;28;6987;-71
2023/01/10 09:54:40;;;;;;;;;;;;;;;25.71;43.65;94928.66;4942405;28;9014;-70
2023/01/10 09:57:16;;;;;;;;;;;;;;;25.72;43.88;94925.38;4957376;28;8707;-71
2023/01/10 10:00:00;;;;;;;;;;;;;;;25.73;44.24;94929.63;4958326;28;7333;-71
2023/01/10 10:02:43;;;;;;;;;;;;;;;25.74;44.47;94933.91;4956169;28;7929;-71
2023/01/10 10:05:27;;;;;;;;;;;;;;;25.74;44.23;94935.91;4954154;28;7299;-71
2023/01/10 10:08:12;;;;;;;;;;;;;;;25.74;43.60;94933.13;4950913;28;7051;-71
2023/01/10 10:11:09;;;;;;;;;;;;;;;25.72;43.87;94939.16;4958616;28;6873;-71
2023/01/10 10:14:22;;;;;;;;;;;;;;;25.74;44.45;94939.41;4953332;28;9045;-70
2023/01/10 10:17:32;;;;;;;;;;;;;;;25.75;43.66;94945.69;4988469;28;8664;-70
2023/01/10 10:20:18;;;;;;;;;;;;;;;25.75;44.36;94938.13;4958845;28;9130;-70
2023/01/10 10:22:52;;;;;;;;;;;;;;;25.76;43.80;94923.13;4940408;28;7034;-71
2023/01/10 10:25:36;;;;;;;;;;;;;;;25.78;44.02;94928.13;4969834;28;7040;-71
2023/01/10 10:28:02;;;;;;;;;;;;;;;25.80;44.03;94920.88;4962335;28;9011;-71
2023/01/10 10:30:41;;;;;;;;;;;;;;;25.79;44.28;94933.16;4957276;28;7027;-70
2023/01/10 10:33:24;;;;;;;;;;;;;;;25.81;43.93;94919.63;4964496;28;7133;-71
2023/01/10 10:35:58;;;;;;;;;;;;;;;25.82;43.98;94921.13;4953376;28;7562;-70
2023/01/10 10:38:46;;;;;;;;;;;;;;;25.85;43.34;94922.91;4955092;28;9410;-70
2023/01/10 10:41:24;;;;;;;;;;;;;;;25.87;44.01;94928.66;4955198;28;7268;-70
2023/01/10 10:43:53;;;;;;;;;;;;;;;25.87;43.24;94925.91;4946241;28;8996;-70
2023/01/10 10:46:21;;;;;;;;;;;;;;;25.87;43.72;94909.38;4970251;28;7160;-71
2023/01/10 10:49:17;;;;;;;;;;;;;;;25.88;43.32;94912.88;4954591;28;7355;-71
2023/01/10 10:51:51;;;;;;;;;;;;;;;25.86;43.68;94904.34;4965186;28;8977;-70
2023/01/10 10:54:35;;;;;;;;;;;;;;;25.88;43.69;94910.84;4955575;28;7249;-70
2023/01/10 10:57:01;;;;;;;;;;;;;;;25.88;43.32;94916.38;4986612;28;7337;-70
2023/01/10 10:59:38;;;;;;;;;;;;;;;25.91;43.44;94911.84;4963825;28;7035;-71
2023/01/10 11:02:27;;;;;;;;;;;;;;;25.92;43.05;94910.63;4951918;28;7129;-70
2023/01/10 11:05:03;;;;;;;;;;;;;;;25.94;43.01;94902.59;4953283;28;8668;-71
2023/01/10 11:07:43;;;;;;;;;;;;;;;25.90;43.22;94902.09;4956568;28;7903;-70
2023/01/10 11:10:34;;;;;;;;;;;;;;;25.88;43.82;94905.34;4950821;28;7282;-70
2023/01/10 11:13:07;;;;;;;;;;;;;;;25.94;43.93;94900.59;4944995;28;8811;-71
2023/01/10 11:15:48;;;;;;;;;;;;;;;25.97;43.31;94899.59;4947289;28;7227;-70
2023/01/10 11:18:25;;;;;;;;;;;;;;;25.96;43.32;94906.38;4965282;28;7267;-71
2023/01/10 11:20:56;;;;;;;;;;;;;;;25.99;43.24;94902.59;4963422;28;9122;-71
2023/01/10 11:23:35;;;;;;;;;;;;;;;25.99;42.82;94899.09;4953087;28;7302;-70
2023/01/10 11:26:39;;;;;;;;;;;;;;;26.00;43.78;94904.09;4958198;28;7116;-70
2023/01/10 11:29:44;;;;;;;;;;;;;;;26.02;43.52;94904.34;4934417;28;7181;-70
2023/01/10 11:32:16;;;;;;;;;;;;;;;26.06;43.69;94904.09;4893526;29;7186;-70
2023/01/10 11:35:30;;;;;;;;;;;;;;;26.09;42.77;94906.66;4894853;29;9508;-70
2023/01/10 11:38:16;;;;;;;;;;;;;;;26.09;43.14;94895.63;4824569;29;9231;-70
2023/01/10 11:41:17;;;;;;;;;;;;;;;26.12;43.68;94900.09;4849305;29;9005;-70
2023/01/10 11:44:14;;;;;;;;;;;;;;;26.13;43.45;94903.63;4804227;29;9488;-71
2023/01/10 11:46:57;;;;;;;;;;;;;;;26.11;43.29;94895.09;4805200;29;7084;-71
2023/01/10 11:49:55;;;;;;;;;;;;;;;26.12;43.76;94897.34;4788841;29;7312;-71
2023/01/10 11:52:56;;;;;;;;;;;;;;;26.13;43.43;94898.88;4729297;30;7838;-71
2023/01/10 11:56:00;;;;;;;;;;;;;;;26.12;43.89;94896.63;4729466;30;7558;-71
2023/01/10 11:58:32;;;;;;;;;;;;;;;26.09;43.49;94890.09;4752760;30;7902;-71
2023/01/10 12:01:40;;;;;;;;;;;;;;;26.13;43.27;94893.34;4749390;30;7678;-71
2023/01/10 12:04:54;;;;;;;;;;;;;;;26.14;43.82;94883.09;4730854;30;7761;-71
2023/01/10 12:07:48;;;;;;;;;;;;;;;26.11;44.04;94873.81;4771459;30;8764;-71
2023/01/10 12:10:35;;;;;;;;;;;;;;;26.07;43.50;94878.03;4771193;30;7026;-71
2023/01/10 12:13:28;;;;;;;;;;;;;;;26.04;43.51;94879.78;4769426;29;8280;-71
2023/01/10 12:16:24;;;;;;;;;;;;;;;26.06;43.73;94880.03;4821267;29;9660;-71
2023/01/10 12:19:18;;;;;;;;;;;;;;;26.07;44.23;94880.81;4801083;29;7675;-71
2023/01/10 12:21:44;;;;;;;;;;;;;;;26.11;43.40;94879.31;4819139;29;9078;-70
2023/01/10 12:24:26;;;;;;;;;;;;;;;26.13;44.06;94874.06;4816243;29;7274;-70
2023/01/10 12:26:55;;;;;;;;;;;;;;;26.12;43.87;94869.06;4816163;29;6863;-70
2023/01/10 12:29:33;;;;;;;;;;;;;;;26.12;42.91;94875.31;4857417;29;7270;-70
2023/01/10 12:32:07;;;;;;;;;;;;;;;26.16;43.21;94869.56;4893961;29;8044;-70
2023/01/10 12:34:48;;;;;;;;;;;;;;;26.20;42.71;94875.56;4870597;29;7471;-70
2023/01/10 12:37:17;;;;;;;;;;;;;;;26.19;42.87;94867.78;4896372;29;6997;-70
2023/01/10 12:39:50;;;;;;;;;;;;;;;26.20;42.52;94869.28;4879435;29;7057;-70
2023/01/10 12:45:37;;;;;;;;;;;;;;;26.13;42.50;94865.03;4893931;29;9348;-70
2023/01/10 12:48:18;;;;;;;;;;;;;;;26.12;43.04;94858.75;4891611;29;9008;-70
2023/01/10 12:50:52;;;;;;;;;;;;;;;26.12;43.09;94856.00;4903474;29;7218;-70
2023/01/10 12:53:30;;;;;;;;;;;;;;;26.11;42.74;94851.75;4879612;29;7002;-70
2023/01/10 12:56:04;;;;;;;;;;;;;;;26.15;42.72;94849.50;4937018;28;9124;-70
2023/01/10 12:59:06;;;;;;;;;;;;;;;26.21;43.15;94841.19;4957210;28;8754;-70
2023/01/10 13:01:41;;;;;;;;;;;;;;;26.24;42.53;94842.19;4942591;28;7122;-71
2023/01/10 13:04:22;;;;;;;;;;;;;;;26.20;43.03;94836.19;4943710;28;9174;-71
2023/01/10 13:06:52;;;;;;;;;;;;;;;26.20;43.04;94841.72;4955666;28;7609;-71
2023/01/10 13:09:30;;;;;;;;;;;;;;;26.19;43.40;94838.19;4960261;28;9037;-70
2023/01/10 13:12:39;;;;;;;;;;;;;;;26.21;43.79;94834.94;4970088;28;9203;-71
2023/01/10 13:15:22;;;;;;;;;;;;;;;26.21;43.29;94821.91;4913270;29;7258;-71
2023/01/10 13:17:59;;;;;;;;;;;;;;;26.25;43.02;94821.66;4911080;29;8883;-71
2023/01/10 13:20:28;;;;;;;;;;;;;;;26.25;42.98;94808.63;4911692;29;7559;-71
2023/01/10 13:22:57;;;;;;;;;;;;;;;26.28;43.10;94817.88;4913229;29;7080;-71
2023/01/10 13:25:29;;;;;;;;;;;;;;;26.30;43.66;94818.13;4905501;29;7258;-70
2023/01/10 13:28:18;;;;;;;;;;;;;;;26.26;43.51;94814.88;4933168;29;9030;-71
2023/01/10 13:31:22;;;;;;;;;;;;;;;26.34;43.75;94808.31;4934982;29;7031;-71
2023/01/10 13:34:01;;;;;;;;;;;;;;;26.36;43.52;94808.56;4881120;29;9166;-71
2023/01/10 13:37:10;;;;;;;;;;;;;;;26.35;42.99;94800.81;4888508;29;9350;-70
2023/01/10 13:39:49;;;;;;;;;;;;;;;26.38;43.67;94803.28;4821824;29;9329;-70
2023/01/10 13:45:30;;;;;;;;;;;;;;;26.42;43.51;94797.53;4838748;29;8722;-71
2023/01/10 13:47:59;;;;;;;;;;;;;;;26.44;43.63;94784.75;4863430;29;9430;-69
2023/01/10 13:50:41;;;;;;;;;;;;;;;26.48;43.34;94795.50;4862497;29;8635;-71
2023/01/10 13:53:17;;;;;;;;;;;;;;;26.51;43.45;94786.97;4894610;29;9263;-71
2023/01/10 13:56:31;;;;;;;;;;;;;;;26.55;43.51;94778.44;4872962;29;6949;-71
2023/01/10 14:05:33;;;;;;;;;;;;;;;26.61;43.50;94776.41;4793028;29;7366;-71
2023/01/10 14:08:00;;;;;;;;;;;;;;;26.64;42.70;94781.63;4782775;29;7457;-71
2023/01/10 14:10:31;;;;;;;;;;;;;;;26.64;43.53;94786.44;4796858;29;7514;-71
2023/01/10 14:13:07;;;;;;;;;;;;;;;26.66;42.57;94778.38;4789066;29;9430;-70
2023/01/10 14:15:46;;;;;;;;;;;;;;;26.67;43.28;94782.63;4784327;29;7903;-70
2023/01/10 14:18:33;;;;;;;;;;;;;;;26.67;42.81;94779.88;4771938;29;9087;-71
2023/01/10 14:21:02;;;;;;;;;;;;;;;26.69;43.10;94774.59;4747286;30;7294;-71
2023/01/10 14:23:41;;;;;;;;;;;;;;;26.71;43.07;94769.31;4764570;30;9020;-71
2023/01/10 14:26:31;;;;;;;;;;;;;;;26.70;43.30;94767.84;4776348;30;7020;-71
2023/01/10 14:29:12;;;;;;;;;;;;;;;26.69;42.93;94767.06;4751505;30;8338;-70
2023/01/10 14:31:52;;;;;;;;;;;;;;;26.71;42.69;94775.59;4751951;30;7369;-71